createdAt,value
2019-02-11T00:04:15.354Z,7
2019-02-11T00:09:11.272Z,7.1
2019-02-11T00:14:07.210Z,7.3
2019-02-11T00:19:03.045Z,7.7
2019-02-11T00:23:58.861Z,7.1
2019-02-11T00:33:50.120Z,7
2019-02-11T00:38:45.967Z,7.6
2019-02-11T00:43:41.780Z,7
2019-02-11T00:48:37.229Z,6.9
2019-02-11T00:53:33.017Z,7.5
2019-02-11T00:58:28.578Z,7.5
2019-02-11T01:03:24.486Z,7.6
2019-02-11T01:08:20.428Z,7.2
2019-02-11T01:13:15.792Z,7.1
2019-02-11T01:18:11.687Z,7.1
2019-02-11T01:23:07.555Z,7.1
2019-02-11T01:28:03.163Z,7
2019-02-11T01:32:58.838Z,7.5
2019-02-11T01:37:54.540Z,7.4
2019-02-11T01:42:50.458Z,7.5
2019-02-11T01:47:45.704Z,7.5
2019-02-11T01:52:41.446Z,7.3
2019-02-11T01:57:37.283Z,7.3
2019-02-11T02:02:33.271Z,7.5
2019-02-11T02:07:29.186Z,7.5
2019-02-11T02:12:25.093Z,7.2
2019-02-11T02:17:21.050Z,6.9
2019-02-11T02:22:17.017Z,7.4
2019-02-11T02:27:12.630Z,7.3
2019-02-11T02:32:08.487Z,7.4
2019-02-11T02:37:03.946Z,7.3
2019-02-11T02:42:00.010Z,7.3
2019-02-11T02:46:55.640Z,7.2
2019-02-11T02:51:51.487Z,7.2
2019-02-11T02:56:47.471Z,7.2
2019-02-11T03:01:43.276Z,7.1
2019-02-11T03:06:38.784Z,7.1
2019-02-11T03:11:34.530Z,7.1
2019-02-11T03:16:30.239Z,7
2019-02-11T03:21:26.155Z,7
2019-02-11T03:26:21.899Z,7
2019-02-11T03:31:17.692Z,6.9
2019-02-11T03:36:13.366Z,6.8
2019-02-11T03:41:09.043Z,6.8
2019-02-11T03:46:04.700Z,6.7
2019-02-11T03:51:00.312Z,6.7
2019-02-11T03:55:55.855Z,6.6
2019-02-11T04:00:51.593Z,6.6
2019-02-11T04:05:47.714Z,6.6
2019-02-11T04:10:43.657Z,6.6
2019-02-11T04:15:39.284Z,6.6
2019-02-11T04:20:35.052Z,6.5
2019-02-11T04:25:30.556Z,6.5
2019-02-11T04:30:26.509Z,6.5
2019-02-11T04:35:22.301Z,6.4
2019-02-11T04:40:18.179Z,6.4
2019-02-11T04:45:14.089Z,6.4
2019-02-11T04:50:09.840Z,6.4
2019-02-11T04:55:05.531Z,6.5
2019-02-11T05:00:01.534Z,6.5
2019-02-11T05:04:57.030Z,6.4
2019-02-11T05:09:53.308Z,6.4
2019-02-11T05:14:49.259Z,6.4
2019-02-11T05:19:45.107Z,6.3
2019-02-11T05:24:40.885Z,6.3
2019-02-11T05:29:36.740Z,6.3
2019-02-11T05:34:32.836Z,6.2
2019-02-11T05:39:28.454Z,6.2
2019-02-11T05:44:24.233Z,6.2
2019-02-11T05:49:20.834Z,6.3
2019-02-11T05:54:16.279Z,6.3
2019-02-11T05:59:12.105Z,6.3
2019-02-11T06:04:07.629Z,6.3
2019-02-11T06:09:03.506Z,6.3
2019-02-11T06:13:59.415Z,6.3
2019-02-11T06:18:55.535Z,6.3
2019-02-11T06:23:51.486Z,6.4
2019-02-11T06:28:47.365Z,6.4
2019-02-11T06:33:43.077Z,6.4
2019-02-11T06:38:39.101Z,2.8
2019-02-11T06:43:34.797Z,6.5
2019-02-11T06:48:30.636Z,6.5
2019-02-11T06:53:26.377Z,6.6
2019-02-11T06:58:22.401Z,6.6
2019-02-11T07:03:16.325Z,6.6
2019-02-11T07:08:12.303Z,6.6
2019-02-11T07:13:08.190Z,6.7
2019-02-11T07:18:04.108Z,6.7
2019-02-11T07:22:59.961Z,6.7
2019-02-11T07:27:55.515Z,6.8
2019-02-11T07:32:51.283Z,6.8
2019-02-11T07:37:47.204Z,6.9
2019-02-11T07:42:42.725Z,6.5
2019-02-11T07:47:38.807Z,7
2019-02-11T07:52:34.990Z,7.1
2019-02-11T07:57:30.944Z,7.2
2019-02-11T08:02:26.736Z,7.3
2019-02-11T08:07:22.519Z,7.3
2019-02-11T08:12:18.511Z,7.4
2019-02-11T08:17:14.168Z,7.4
2019-02-11T08:22:09.585Z,7.4
2019-02-11T08:27:05.149Z,7.4
2019-02-11T08:32:01.111Z,7.5
2019-02-11T08:36:57.111Z,7.5
2019-02-11T08:41:52.959Z,7.6
2019-02-11T08:46:48.859Z,7.7
2019-02-11T08:51:44.548Z,7.8
2019-02-11T08:56:40.475Z,7.9
2019-02-11T09:01:36.314Z,8
2019-02-11T09:06:32.035Z,7.7
2019-02-11T09:11:27.947Z,8.2
2019-02-11T09:16:23.658Z,8.2
2019-02-11T09:21:19.627Z,8.3
2019-02-11T09:26:15.671Z,7.8
2019-02-11T09:31:11.535Z,7.9
2019-02-11T09:36:07.399Z,8
2019-02-11T09:41:03.260Z,8.1
2019-02-11T09:46:03.828Z,8.1
2019-02-11T09:50:55.315Z,8.6
2019-02-11T09:55:51.242Z,8.2
2019-02-11T10:00:47.231Z,8.2
2019-02-11T10:05:43.047Z,8.2
2019-02-11T10:10:38.762Z,8.3
2019-02-11T10:15:34.751Z,8.8
2019-02-11T10:20:30.498Z,8.8
2019-02-11T10:25:26.522Z,8.4
2019-02-11T10:30:22.409Z,8.9
2019-02-11T10:35:18.313Z,8.4
2019-02-11T10:40:13.707Z,9
2019-02-11T10:45:09.510Z,9
2019-02-11T10:50:05.405Z,8.6
2019-02-11T10:55:01.309Z,8.6
2019-02-11T10:59:57.038Z,9.1
2019-02-11T11:04:52.339Z,9.2
2019-02-11T11:09:47.832Z,8.7
2019-02-11T11:14:44.001Z,9.2
2019-02-11T11:19:39.526Z,8.7
2019-02-11T11:24:35.486Z,9.2
2019-02-11T11:29:30.855Z,9.2
2019-02-11T11:34:26.720Z,9.3
2019-02-11T11:39:22.640Z,9.3
2019-02-11T11:44:18.839Z,8.8
2019-02-11T11:49:14.690Z,8.8
2019-02-11T11:54:10.565Z,8.8
2019-02-11T11:59:06.300Z,8.9
2019-02-11T12:04:06.147Z,9.4
2019-02-11T12:08:59.295Z,9
2019-02-11T12:13:54.465Z,9.5
2019-02-11T12:18:49.761Z,9.6
2019-02-11T12:23:45.189Z,9.6
2019-02-11T12:28:41.235Z,9.2
2019-02-11T12:33:37.493Z,9.7
2019-02-11T12:38:33.577Z,9.8
2019-02-11T12:43:29.559Z,9.4
2019-02-11T12:48:25.729Z,9.9
2019-02-11T12:53:21.789Z,10
2019-02-11T12:58:17.957Z,9.6
2019-02-11T13:03:14.377Z,10.1
2019-02-11T13:08:10.062Z,10.1
2019-02-11T13:13:07.230Z,10.2
2019-02-11T13:18:02.629Z,10.3
2019-02-11T13:22:58.321Z,10.3
2019-02-11T13:27:54.072Z,10.4
2019-02-11T13:32:50.147Z,10.4
2019-02-11T13:37:46.670Z,10.4
2019-02-11T13:42:42.712Z,10.5
2019-02-11T13:47:51.524Z,10.6
2019-02-11T13:52:34.540Z,10.6
2019-02-11T13:57:30.409Z,10.7
2019-02-11T14:02:26.401Z,10.7
2019-02-11T14:07:22.258Z,10.8
2019-02-11T14:12:18.367Z,10.8
2019-02-11T14:17:15.076Z,10.9
2019-02-11T14:22:11.120Z,10.9
2019-02-11T14:27:06.963Z,10.9
2019-02-11T14:32:03.098Z,10.9
2019-02-11T14:36:59.143Z,10.9
2019-02-11T14:41:55.198Z,10.9
2019-02-11T14:46:50.815Z,10.9
2019-02-11T14:51:46.851Z,10.8
2019-02-11T14:56:42.907Z,10.9
2019-02-11T15:01:38.963Z,10.9
2019-02-11T15:06:34.719Z,10.9
2019-02-11T15:11:30.610Z,10.9
2019-02-11T15:16:26.134Z,10.9
2019-02-11T15:21:22.221Z,10.9
2019-02-11T15:26:18.129Z,10.9
2019-02-11T15:31:14.148Z,9.8
2019-02-11T15:36:09.461Z,10.9
2019-02-11T15:41:05.691Z,10.9
2019-02-11T15:46:01.537Z,10.9
2019-02-11T15:50:57.453Z,10.9
2019-02-11T15:55:53.433Z,10.9
2019-02-11T16:00:49.692Z,10.9
2019-02-11T16:05:49.599Z,10.9
2019-02-11T16:10:41.735Z,10.9
2019-02-11T16:15:37.429Z,10.9
2019-02-11T16:20:33.619Z,11
2019-02-11T16:25:29.584Z,11
2019-02-11T16:30:25.801Z,11
2019-02-11T16:35:21.687Z,11
2019-02-11T16:40:17.674Z,11
2019-02-11T16:45:13.150Z,11
2019-02-11T16:50:09.643Z,11
2019-02-11T16:55:05.491Z,11
2019-02-11T17:00:01.527Z,11
2019-02-11T17:04:57.733Z,11
2019-02-11T17:09:54.440Z,10.9
2019-02-11T17:14:51.646Z,10.9
2019-02-11T17:19:47.653Z,10.9
2019-02-11T17:24:43.130Z,6.9
2019-02-11T17:29:39.017Z,10.8
2019-02-11T17:34:35.043Z,10.7
2019-02-11T17:39:30.975Z,10.5
2019-02-11T17:44:26.545Z,10.7
2019-02-11T17:49:22.572Z,10.6
2019-02-11T17:54:18.682Z,10.6
2019-02-11T17:59:14.849Z,9.5
2019-02-11T18:04:11.007Z,10.5
2019-02-11T18:09:07.231Z,10.5
2019-02-11T18:14:03.190Z,10.5
2019-02-11T18:18:59.309Z,10.4
2019-02-11T18:23:55.185Z,10.4
2019-02-11T18:28:51.106Z,10.4
2019-02-11T18:33:46.937Z,9.8
2019-02-11T18:38:42.870Z,10.3
2019-02-11T18:43:38.819Z,10.3
2019-02-11T18:48:34.907Z,10.2
2019-02-11T18:53:30.858Z,10.2
2019-02-11T18:58:27.075Z,10.2
2019-02-11T19:03:23.049Z,10.2
2019-02-11T19:08:19.016Z,10.2
2019-02-11T19:13:15.030Z,10.2
2019-02-11T19:18:11.018Z,10.2
2019-02-11T19:23:07.019Z,9.7
2019-02-11T19:28:03.161Z,10.1
2019-02-11T19:32:59.065Z,10.1
2019-02-11T19:37:55.256Z,10.1
2019-02-11T19:42:50.941Z,10.1
2019-02-11T19:47:47.132Z,10.1
2019-02-11T19:52:43.214Z,9.6
2019-02-11T19:57:39.314Z,10.1
2019-02-11T20:02:34.780Z,10.1
2019-02-11T20:07:31.106Z,10
2019-02-11T20:12:27.081Z,9.9
2019-02-11T20:17:23.075Z,9.9
2019-02-11T20:22:18.730Z,9.1
2019-02-11T20:27:14.774Z,10
2019-02-11T20:32:10.566Z,9.4
2019-02-11T20:37:06.577Z,9.9
2019-02-11T20:42:02.442Z,9.4
2019-02-11T20:46:58.396Z,9.9
2019-02-11T20:51:54.092Z,9.9
2019-02-11T20:56:50.073Z,9.4
2019-02-11T21:01:45.757Z,9.5
2019-02-11T21:06:41.767Z,9.4
2019-02-11T21:11:37.919Z,9.4
2019-02-11T21:16:34.240Z,9.9
2019-02-11T21:21:30.049Z,9.4
2019-02-11T21:26:25.828Z,9.9
2019-02-11T21:31:21.476Z,9.4
2019-02-11T21:36:17.025Z,9.3
2019-02-11T21:41:13.145Z,9.2
2019-02-11T21:46:08.862Z,8.7
2019-02-11T21:51:04.397Z,8.6
2019-02-11T21:55:59.786Z,8.7
2019-02-11T22:01:02.023Z,7
2019-02-11T22:05:51.361Z,8.3
2019-02-11T22:10:47.034Z,8.1
2019-02-11T22:15:43.033Z,7.8
2019-02-11T22:20:38.808Z,8.1
2019-02-11T22:25:34.703Z,7.8
2019-02-11T22:30:30.373Z,7.7
2019-02-11T22:35:26.145Z,7.6
2019-02-11T22:40:21.788Z,7.2
2019-02-11T22:45:17.723Z,7
2019-02-11T22:50:13.364Z,7.1
2019-02-11T22:55:09.339Z,7
2019-02-11T23:00:05.069Z,6.9
2019-02-11T23:05:01.153Z,6.8
2019-02-11T23:09:56.437Z,6.8
2019-02-11T23:14:52.426Z,6.8
2019-02-11T23:19:48.394Z,6.7
2019-02-11T23:24:44.344Z,6.7
2019-02-11T23:29:39.958Z,6.7
2019-02-11T23:34:35.802Z,6.6
2019-02-11T23:39:31.828Z,6.5
2019-02-11T23:44:27.891Z,6.5
2019-02-11T23:49:24.083Z,6.5
2019-02-11T23:54:20.175Z,6.5
2019-02-11T23:59:16.396Z,6.5
